Time;durP1;ratioP1;P1;durP2;ratioP2;P2;SDS_P1;SDS_P2;PMS_P1;PMS_P2;Temp;Humidity;BMP_temperature;BMP_pressure;BME280_temperature;BME280_humidity;BME280_pressure;Samples;Min_cycle;Max_cycle;Signal;HPM_P1;HPM_P2
2022/10/18 00:02:15;;;;;;;;;;;;;;;16.64;100.00;100095.28;8362682;28;19943;-77
2022/10/18 00:06:16;;;;;;;;;;;;;;;16.61;100.00;100093.59;8364593;28;19971;-76
2022/10/18 00:10:18;;;;;;;;;;;;;;;16.59;100.00;100090.13;8370948;28;19982;-77
2022/10/18 00:14:19;;;;;;;;;;;;;;;16.59;100.00;100097.16;8370887;28;19928;-78
2022/10/18 00:18:21;;;;;;;;;;;;;;;16.60;100.00;100093.63;8381453;28;19928;-78
2022/10/18 00:22:22;;;;;;;;;;;;;;;16.59;100.00;100094.53;8356894;28;19928;-78
2022/10/18 00:26:25;;;;;;;;;;;;;;;16.58;100.00;100087.53;8365099;28;19933;-78
2022/10/18 00:30:26;;;;;;;;;;;;;;;16.56;100.00;100084.97;8373874;28;20010;-78
2022/10/18 00:34:28;;;;;;;;;;;;;;;16.57;100.00;100072.72;8360757;28;19985;-78
2022/10/18 00:38:29;;;;;;;;;;;;;;;16.57;100.00;100070.09;8373342;28;19933;-78
2022/10/18 00:42:35;;;;;;;;;;;;;;;16.49;100.00;100117.41;8372049;28;20746;-77
2022/10/18 00:46:37;;;;;;;;;;;;;;;16.50;100.00;100132.22;8361990;28;19928;-78
2022/10/18 00:50:39;;;;;;;;;;;;;;;16.64;100.00;100124.13;8374171;28;20365;-75
2022/10/18 00:54:42;;;;;;;;;;;;;;;16.73;100.00;100131.03;8351570;28;19928;-76
2022/10/18 00:58:44;;;;;;;;;;;;;;;16.80;100.00;100137.88;8375753;28;19997;-78
2022/10/18 01:02:47;;;;;;;;;;;;;;;16.85;100.00;100141.28;8362037;28;20038;-78
2022/10/18 01:06:56;;;;;;;;;;;;;;;16.87;100.00;100114.13;8339284;28;19929;-78
2022/10/18 01:11:16;;;;;;;;;;;;;;;16.91;100.00;100115.81;8366906;28;19981;-77
2022/10/18 01:15:18;;;;;;;;;;;;;;;16.91;100.00;100093.97;8341516;28;20513;-77
2022/10/18 01:19:34;;;;;;;;;;;;;;;16.90;100.00;100090.50;8366337;28;19925;-77
2022/10/18 01:23:41;;;;;;;;;;;;;;;16.90;100.00;100092.25;8357325;28;19933;-77
2022/10/18 01:27:43;;;;;;;;;;;;;;;16.88;100.00;100086.16;8353771;28;19929;-77
2022/10/18 01:31:46;;;;;;;;;;;;;;;16.86;100.00;100083.53;8355998;28;19936;-77
2022/10/18 01:35:51;;;;;;;;;;;;;;;16.85;100.00;100079.19;8352532;28;19928;-77
2022/10/18 01:39:55;;;;;;;;;;;;;;;16.85;100.00;100073.09;8373473;28;19933;-77
2022/10/18 01:43:58;;;;;;;;;;;;;;;16.83;100.00;100082.75;8358716;28;20480;-77
2022/10/18 01:48:00;;;;;;;;;;;;;;;16.77;100.00;100077.63;8355868;28;20389;-77
2022/10/18 01:52:02;;;;;;;;;;;;;;;16.70;100.00;100082.13;8372368;28;20428;-77
2022/10/18 01:56:10;;;;;;;;;;;;;;;16.62;100.00;100078.72;8376614;28;19928;-77
2022/10/18 02:00:14;;;;;;;;;;;;;;;16.50;100.00;100074.56;8378007;28;19929;-77
2022/10/18 02:04:26;;;;;;;;;;;;;;;16.44;100.00;100074.69;8365815;28;21198;-77
2022/10/18 02:08:30;;;;;;;;;;;;;;;16.41;100.00;100073.88;8378856;28;20316;-77
2022/10/18 02:12:32;;;;;;;;;;;;;;;16.39;100.00;100065.16;8336129;28;19946;-77
2022/10/18 02:16:40;;;;;;;;;;;;;;;16.36;100.00;100063.47;8368669;28;20044;-77
2022/10/18 02:20:41;;;;;;;;;;;;;;;16.33;100.00;100066.97;8369551;28;19982;-77
2022/10/18 02:24:45;;;;;;;;;;;;;;;16.31;100.00;100075.75;8360165;28;19928;-77
2022/10/18 02:28:46;;;;;;;;;;;;;;;16.29;100.00;100077.56;8352500;28;19962;-77
2022/10/18 02:32:48;;;;;;;;;;;;;;;16.27;100.00;100069.72;8368455;28;20341;-77
2022/10/18 02:36:51;;;;;;;;;;;;;;;16.26;100.00;100064.50;8372039;28;19928;-77
2022/10/18 02:40:52;;;;;;;;;;;;;;;16.23;100.00;100056.69;8371794;28;20376;-77
2022/10/18 02:44:54;;;;;;;;;;;;;;;16.17;100.00;100062.91;8355622;28;20425;-77
2022/10/18 02:48:55;;;;;;;;;;;;;;;16.10;100.00;100065.63;8358792;28;19932;-76
2022/10/18 02:52:56;;;;;;;;;;;;;;;16.01;100.00;100069.28;8368719;28;19928;-77
2022/10/18 02:56:58;;;;;;;;;;;;;;;15.95;100.00;100078.09;8353279;28;20315;-77
2022/10/18 03:00:59;;;;;;;;;;;;;;;15.91;100.00;100084.25;8354745;28;19986;-77
2022/10/18 03:05:00;;;;;;;;;;;;;;;15.88;100.00;100084.31;8373780;28;19929;-77
2022/10/18 03:09:03;;;;;;;;;;;;;;;15.87;100.00;100087.81;8339927;28;19936;-77
2022/10/18 03:13:04;;;;;;;;;;;;;;;15.83;100.00;100098.38;8353952;28;19929;-77
2022/10/18 03:17:05;;;;;;;;;;;;;;;15.80;100.00;100099.28;8333349;28;19982;-77
2022/10/18 03:21:07;;;;;;;;;;;;;;;15.82;100.00;100099.25;8361759;28;20471;-77
2022/10/18 03:25:08;;;;;;;;;;;;;;;15.86;100.00;100107.03;8373234;28;19929;-77
2022/10/18 03:29:10;;;;;;;;;;;;;;;15.92;100.00;100114.81;8348454;28;19932;-77
2022/10/18 03:33:11;;;;;;;;;;;;;;;15.95;100.00;100119.13;8368219;28;20401;-77
2022/10/18 03:37:13;;;;;;;;;;;;;;;15.99;100.00;100121.69;8373860;28;20349;-77
2022/10/18 03:41:14;;;;;;;;;;;;;;;16.04;100.00;100126.00;8358533;28;19933;-77
2022/10/18 03:45:16;;;;;;;;;;;;;;;16.07;100.00;100132.06;8349368;28;20512;-77
2022/10/18 03:49:18;;;;;;;;;;;;;;;16.11;100.00;100128.50;8364969;28;20773;-77
2022/10/18 03:53:19;;;;;;;;;;;;;;;16.15;100.00;100132.78;8360171;28;20747;-78
2022/10/18 03:57:20;;;;;;;;;;;;;;;16.19;100.00;100136.25;8360419;28;19936;-77
2022/10/18 04:01:21;;;;;;;;;;;;;;;16.23;100.00;100140.56;8351661;28;20389;-77
2022/10/18 04:05:25;;;;;;;;;;;;;;;16.23;100.00;100144.03;8368417;28;19986;-77
2022/10/18 04:09:27;;;;;;;;;;;;;;;16.24;100.00;100148.38;8371349;28;19929;-77
2022/10/18 04:13:29;;;;;;;;;;;;;;;16.25;100.00;100151.88;8357569;28;19932;-77
2022/10/18 04:17:30;;;;;;;;;;;;;;;16.25;100.00;100151.88;8365393;28;20308;-77
2022/10/18 04:21:32;;;;;;;;;;;;;;;16.25;100.00;100154.50;8332228;28;20019;-76
2022/10/18 04:25:33;;;;;;;;;;;;;;;16.23;100.00;100143.19;8355267;28;19928;-76
2022/10/18 04:29:34;;;;;;;;;;;;;;;16.21;100.00;100114.38;8361865;28;19929;-77
2022/10/18 04:33:36;;;;;;;;;;;;;;;16.21;100.00;100108.28;8360699;28;20658;-77
2022/10/18 04:37:38;;;;;;;;;;;;;;;16.20;100.00;100094.31;8373840;28;19963;-78
2022/10/18 04:41:39;;;;;;;;;;;;;;;16.20;100.00;100107.41;8379824;28;20319;-78
2022/10/18 04:45:41;;;;;;;;;;;;;;;16.21;100.00;100103.91;8360677;28;20292;-78
2022/10/18 04:49:42;;;;;;;;;;;;;;;16.21;100.00;100106.50;8378640;28;19986;-78
2022/10/18 04:53:43;;;;;;;;;;;;;;;16.19;100.00;100113.53;8380896;28;19939;-78
2022/10/18 04:57:45;;;;;;;;;;;;;;;16.14;100.00;100117.97;8379483;28;20577;-77
2022/10/18 05:01:46;;;;;;;;;;;;;;;16.11;100.00;100130.25;8372289;28;19986;-77
2022/10/18 05:05:48;;;;;;;;;;;;;;;16.06;100.00;100132.94;8378903;28;19963;-77
2022/10/18 05:10:04;;;;;;;;;;;;;;;16.05;100.00;100138.22;8378867;28;19994;-77
2022/10/18 05:14:08;;;;;;;;;;;;;;;16.05;100.00;100146.06;8382306;28;19928;-77
2022/10/18 05:18:10;;;;;;;;;;;;;;;16.06;100.00;100153.03;8355916;28;19982;-77
2022/10/18 05:22:11;;;;;;;;;;;;;;;16.05;100.00;100167.91;8344086;28;19933;-77
2022/10/18 05:26:13;;;;;;;;;;;;;;;16.06;100.00;100179.25;8365877;28;19933;-77
2022/10/18 05:30:14;;;;;;;;;;;;;;;16.07;100.00;100176.59;8369766;28;19932;-77
2022/10/18 05:34:16;;;;;;;;;;;;;;;16.08;100.00;100175.69;8341226;28;19940;-77
2022/10/18 05:38:21;;;;;;;;;;;;;;;16.11;100.00;100187.88;8380285;28;19986;-77
2022/10/18 05:42:22;;;;;;;;;;;;;;;16.13;100.00;100191.34;8349645;28;19968;-77
2022/10/18 05:46:24;;;;;;;;;;;;;;;16.17;100.00;100190.44;8349959;28;19928;-77
2022/10/18 05:50:25;;;;;;;;;;;;;;;16.19;100.00;100189.53;8366992;28;19936;-77
2022/10/18 05:54:27;;;;;;;;;;;;;;;16.21;100.00;100179.88;8377806;28;19997;-77
2022/10/18 05:58:28;;;;;;;;;;;;;;;16.22;100.00;100184.25;8366946;28;19936;-77
2022/10/18 06:02:29;;;;;;;;;;;;;;;16.23;100.00;100191.22;8376695;28;19975;-78
2022/10/18 06:06:31;;;;;;;;;;;;;;;16.23;100.00;100178.09;8361853;28;19939;-77
2022/10/18 06:10:33;;;;;;;;;;;;;;;16.24;100.00;100192.06;8362268;28;19932;-77
2022/10/18 06:14:37;;;;;;;;;;;;;;;16.24;100.00;100195.56;8362505;28;20342;-78
2022/10/18 06:18:39;;;;;;;;;;;;;;;16.23;100.00;100191.22;8373176;28;20312;-77
2022/10/18 06:22:40;;;;;;;;;;;;;;;16.22;100.00;100201.72;8369918;28;20497;-77
2022/10/18 06:26:42;;;;;;;;;;;;;;;16.20;100.00;100198.25;8376589;28;20001;-77
2022/10/18 06:30:43;;;;;;;;;;;;;;;16.17;100.00;100199.16;8360815;28;19941;-77
2022/10/18 06:34:45;;;;;;;;;;;;;;;16.14;100.00;100201.81;8367909;28;20519;-77
2022/10/18 06:38:47;;;;;;;;;;;;;;;16.15;100.00;100215.78;8373803;28;19937;-77
2022/10/18 06:42:48;;;;;;;;;;;;;;;16.17;100.00;100220.13;8373240;28;19933;-78
2022/10/18 06:47:00;;;;;;;;;;;;;;;16.23;100.00;100227.03;8362999;28;19928;-77
2022/10/18 06:51:03;;;;;;;;;;;;;;;16.27;100.00;100226.09;8351688;28;20466;-77
2022/10/18 06:55:05;;;;;;;;;;;;;;;16.32;100.00;100227.75;8350983;28;19929;-77
2022/10/18 06:59:09;;;;;;;;;;;;;;;16.39;100.00;100241.66;8368363;28;19928;-77
2022/10/18 07:03:11;;;;;;;;;;;;;;;16.44;100.00;100239.81;8357530;28;19928;-77
2022/10/18 07:07:12;;;;;;;;;;;;;;;16.51;100.00;100246.69;8361828;28;19928;-77
2022/10/18 07:11:22;;;;;;;;;;;;;;;16.56;100.00;100247.50;8350411;28;19982;-77
2022/10/18 07:15:24;;;;;;;;;;;;;;;16.59;100.00;100246.59;8373971;28;20309;-77
2022/10/18 07:19:25;;;;;;;;;;;;;;;16.56;100.00;100260.63;8359187;28;20380;-77
2022/10/18 07:23:27;;;;;;;;;;;;;;;16.57;100.00;100256.25;8362743;28;19928;-77
2022/10/18 07:27:28;;;;;;;;;;;;;;;16.58;100.00;100257.97;8378826;28;19928;-77
2022/10/18 07:31:30;;;;;;;;;;;;;;;16.62;100.00;100257.03;8353968;28;20252;-77
2022/10/18 07:35:32;;;;;;;;;;;;;;;16.68;100.00;100262.22;8362956;28;19947;-77
2022/10/18 07:39:33;;;;;;;;;;;;;;;16.72;100.00;100265.69;8364825;28;19935;-78
2022/10/18 07:43:35;;;;;;;;;;;;;;;16.73;100.00;100276.16;8346092;28;19958;-77
2022/10/18 07:47:36;;;;;;;;;;;;;;;16.75;100.00;100291.84;8372035;28;20394;-77
2022/10/18 07:51:38;;;;;;;;;;;;;;;16.77;100.00;100290.06;8383171;28;19951;-77
2022/10/18 07:55:39;;;;;;;;;;;;;;;16.77;100.00;100287.44;8363967;28;19958;-76
2022/10/18 07:59:40;;;;;;;;;;;;;;;16.81;100.00;100290.00;8362953;28;19928;-77
2022/10/18 08:03:42;;;;;;;;;;;;;;;16.87;100.00;100289.03;8352715;28;19929;-76
2022/10/18 08:07:45;;;;;;;;;;;;;;;16.92;100.00;100295.09;8344763;28;19936;-76
2022/10/18 08:11:46;;;;;;;;;;;;;;;16.96;100.00;100304.63;8371443;28;19932;-76
2022/10/18 08:15:48;;;;;;;;;;;;;;;17.01;100.00;100317.66;8369951;28;19940;-76
2022/10/18 08:19:49;;;;;;;;;;;;;;;17.06;100.00;100316.72;8366832;28;19928;-77
2022/10/18 08:24:10;;;;;;;;;;;;;;;17.18;100.00;100321.75;8364817;28;19928;-77
2022/10/18 08:28:12;;;;;;;;;;;;;;;17.28;100.00;100319.00;8357317;28;19929;-77
2022/10/18 08:32:14;;;;;;;;;;;;;;;17.32;100.00;100316.28;8366028;28;19936;-77
2022/10/18 08:36:15;;;;;;;;;;;;;;;17.39;100.00;100317.03;8386046;28;19933;-78
2022/10/18 08:40:17;;;;;;;;;;;;;;;17.49;100.00;100319.47;8353135;28;19932;-78
2022/10/18 08:44:22;;;;;;;;;;;;;;;17.62;100.00;100322.75;8361138;28;19928;-77
2022/10/18 08:48:43;;;;;;;;;;;;;;;17.74;100.00;100324.31;8371437;28;19932;-77
2022/10/18 08:52:47;;;;;;;;;;;;;;;17.77;100.00;100333.03;8361762;28;20526;-77
2022/10/18 08:56:55;;;;;;;;;;;;;;;17.76;100.00;100336.53;8367463;28;20349;-77
2022/10/18 09:00:57;;;;;;;;;;;;;;;17.70;100.00;100336.66;8355675;28;19973;-77
2022/10/18 09:05:07;;;;;;;;;;;;;;;17.67;100.00;100344.56;8381342;28;19929;-77
2022/10/18 09:09:14;;;;;;;;;;;;;;;17.59;100.00;100345.56;8361411;28;19959;-77
2022/10/18 09:13:34;;;;;;;;;;;;;;;17.53;100.00;100349.19;8377499;28;19982;-77
2022/10/18 09:17:43;;;;;;;;;;;;;;;17.59;100.00;100340.31;8373224;28;19937;-78
2022/10/18 09:21:50;;;;;;;;;;;;;;;17.61;100.00;100346.44;8378450;28;19939;-77
2022/10/18 09:26:00;;;;;;;;;;;;;;;17.62;100.00;100341.16;8347611;28;19943;-77
2022/10/18 09:30:12;;;;;;;;;;;;;;;17.65;100.00;100337.59;8360605;28;19947;-77
2022/10/18 09:34:24;;;;;;;;;;;;;;;17.71;100.00;100340.13;8373398;28;20380;-77
2022/10/18 09:38:29;;;;;;;;;;;;;;;17.77;100.00;100342.63;8381269;28;19985;-77
2022/10/18 09:42:38;;;;;;;;;;;;;;;17.83;100.00;100347.81;8356577;28;20420;-78
2022/10/18 09:46:46;;;;;;;;;;;;;;;17.87;100.00;100344.22;8337742;28;19982;-77
2022/10/18 09:50:55;;;;;;;;;;;;;;;17.97;100.00;100344.91;8362481;28;19998;-78
2022/10/18 09:55:00;;;;;;;;;;;;;;;18.09;100.00;100342.91;8375062;28;19929;-77
2022/10/18 09:59:01;;;;;;;;;;;;;;;18.24;99.09;100346.97;8342520;28;20022;-77
2022/10/18 10:03:06;;;;;;;;;;;;;;;18.38;98.13;100344.94;8358258;28;20284;-78
2022/10/18 10:07:10;;;;;;;;;;;;;;;18.56;97.38;100354.22;8347145;28;19932;-77
2022/10/18 10:11:29;;;;;;;;;;;;;;;18.67;95.89;100356.63;8363060;28;19932;-77
2022/10/18 10:15:32;;;;;;;;;;;;;;;18.76;94.75;100361.69;8354961;28;19982;-77
2022/10/18 10:20:00;;;;;;;;;;;;;;;18.79;94.32;100363.38;8373553;28;19959;-77
2022/10/18 10:24:03;;;;;;;;;;;;;;;18.79;92.53;100363.38;8354961;28;20269;-77
2022/10/18 10:28:25;;;;;;;;;;;;;;;18.92;92.45;100363.09;8379195;28;20043;-78
2022/10/18 10:32:28;;;;;;;;;;;;;;;19.05;91.93;100353.13;8371278;28;19966;-78
2022/10/18 10:36:30;;;;;;;;;;;;;;;19.18;91.92;100361.59;8367546;28;19939;-77
2022/10/18 10:40:33;;;;;;;;;;;;;;;19.29;90.81;100351.66;8370865;28;20504;-77
2022/10/18 10:44:35;;;;;;;;;;;;;;;19.31;90.56;100360.41;8342207;28;19975;-77
2022/10/18 10:48:44;;;;;;;;;;;;;;;19.27;90.30;100366.66;8368297;28;20265;-78
2022/10/18 10:52:46;;;;;;;;;;;;;;;19.27;90.82;100371.91;8367069;28;19932;-77
2022/10/18 10:57:11;;;;;;;;;;;;;;;19.20;91.00;100376.44;8348537;28;20122;-77
2022/10/18 11:01:16;;;;;;;;;;;;;;;19.13;90.72;100366.97;8345968;28;19928;-78
2022/10/18 11:05:21;;;;;;;;;;;;;;;19.05;91.73;100363.66;8365056;28;19929;-78
2022/10/18 11:09:44;;;;;;;;;;;;;;;19.05;92.19;100366.31;8376116;28;19928;-78
2022/10/18 11:13:56;;;;;;;;;;;;;;;19.12;93.29;100372.28;8364061;28;19929;-78
2022/10/18 11:18:30;;;;;;;;;;;;;;;19.23;93.63;100375.53;8373488;28;19935;-77
2022/10/18 11:22:39;;;;;;;;;;;;;;;19.33;92.90;100369.13;8371324;28;19928;-77
2022/10/18 11:26:49;;;;;;;;;;;;;;;19.41;89.62;100371.59;8374294;28;19959;-77
2022/10/18 11:31:02;;;;;;;;;;;;;;;19.46;88.04;100373.19;8333938;28;20020;-78
2022/10/18 11:35:04;;;;;;;;;;;;;;;19.52;89.16;100362.50;8340939;28;19928;-78
2022/10/18 11:39:14;;;;;;;;;;;;;;;19.60;88.47;100357.06;8368287;28;20031;-78
2022/10/18 11:43:26;;;;;;;;;;;;;;;19.60;87.25;100367.63;8378130;28;19924;-78
2022/10/18 11:48:03;;;;;;;;;;;;;;;19.60;88.24;100357.06;8372310;28;20616;-78
2022/10/18 11:52:28;;;;;;;;;;;;;;;19.61;89.83;100345.63;8378747;28;20771;-78
2022/10/18 11:56:35;;;;;;;;;;;;;;;19.66;89.09;100340.22;8372434;28;19932;-78
2022/10/18 12:00:39;;;;;;;;;;;;;;;19.74;90.02;100339.09;8372998;28;19932;-78
2022/10/18 12:04:46;;;;;;;;;;;;;;;19.72;88.77;100340.91;8360819;28;19933;-78
2022/10/18 12:09:26;;;;;;;;;;;;;;;19.71;87.46;100339.19;8341791;28;19928;-76
2022/10/18 12:13:37;;;;;;;;;;;;;;;19.75;87.99;100340.88;8368884;28;19929;-78
2022/10/18 12:17:46;;;;;;;;;;;;;;;19.75;87.54;100332.06;8370700;28;20414;-78
2022/10/18 12:21:50;;;;;;;;;;;;;;;19.75;87.86;100327.69;8354329;28;19929;-78
2022/10/18 12:25:53;;;;;;;;;;;;;;;19.77;87.11;100319.75;8342261;28;19986;-76
2022/10/18 12:30:02;;;;;;;;;;;;;;;19.82;87.24;100320.47;8361137;28;20278;-78
2022/10/18 12:34:22;;;;;;;;;;;;;;;19.85;87.48;100321.25;8345630;28;19929;-77
2022/10/18 12:38:26;;;;;;;;;;;;;;;19.84;87.01;100318.66;8344273;28;19939;-78
2022/10/18 12:42:29;;;;;;;;;;;;;;;19.85;87.04;100318.59;8344680;28;19937;-78
2022/10/18 12:46:48;;;;;;;;;;;;;;;19.85;87.09;100325.66;8357754;28;19938;-79
2022/10/18 12:50:56;;;;;;;;;;;;;;;19.82;87.70;100317.84;8375722;28;20031;-78
2022/10/18 12:55:02;;;;;;;;;;;;;;;19.75;86.92;100319.78;8369894;28;19936;-79
2022/10/18 12:59:16;;;;;;;;;;;;;;;19.73;86.99;100318.94;8363945;28;19928;-78
2022/10/18 13:03:17;;;;;;;;;;;;;;;19.73;87.60;100312.78;8354738;28;19935;-79
2022/10/18 13:07:21;;;;;;;;;;;;;;;19.78;87.96;100308.28;8368509;28;20284;-78
2022/10/18 13:11:30;;;;;;;;;;;;;;;19.79;87.80;100312.66;8370162;28;19932;-78
2022/10/18 13:15:34;;;;;;;;;;;;;;;19.76;87.73;100315.38;8372993;28;20022;-78
2022/10/18 13:19:45;;;;;;;;;;;;;;;19.72;87.69;100305.81;8357785;28;20316;-78
2022/10/18 13:24:13;;;;;;;;;;;;;;;19.71;87.78;100309.34;8369247;28;20403;-78
2022/10/18 13:28:29;;;;;;;;;;;;;;;19.67;85.92;100303.28;8351462;28;19932;-78
2022/10/18 13:32:52;;;;;;;;;;;;;;;19.68;86.67;100306.78;8365260;28;20413;-77
2022/10/18 13:36:57;;;;;;;;;;;;;;;19.68;86.17;100312.06;8358167;28;19932;-78
2022/10/18 13:40:59;;;;;;;;;;;;;;;19.59;85.75;100315.81;8350383;28;19936;-78
2022/10/18 13:45:19;;;;;;;;;;;;;;;19.55;85.92;100309.75;8364976;28;20387;-78
2022/10/18 13:49:28;;;;;;;;;;;;;;;19.54;86.86;100310.66;8340677;28;19982;-79
2022/10/18 13:53:42;;;;;;;;;;;;;;;19.54;87.48;100315.91;8375972;28;20327;-78
2022/10/18 13:57:49;;;;;;;;;;;;;;;19.55;87.16;100316.78;8375549;28;19929;-78
2022/10/18 14:01:53;;;;;;;;;;;;;;;19.51;86.52;100323.00;8371724;28;19932;-77
2022/10/18 14:06:13;;;;;;;;;;;;;;;19.51;87.19;100320.38;8363989;28;19959;-78
2022/10/18 14:10:21;;;;;;;;;;;;;;;19.49;86.29;100317.78;8338908;28;19932;-78
2022/10/18 14:14:45;;;;;;;;;;;;;;;19.51;86.72;100325.66;8356865;28;20409;-78
2022/10/18 14:18:50;;;;;;;;;;;;;;;19.51;86.56;100321.25;8364641;28;19940;-78
2022/10/18 14:22:54;;;;;;;;;;;;;;;19.45;86.41;100321.41;8346614;28;19928;-78
2022/10/18 14:27:17;;;;;;;;;;;;;;;19.43;86.91;100320.59;8355943;28;19933;-78
2022/10/18 14:31:18;;;;;;;;;;;;;;;19.41;86.50;100319.78;8351455;28;19943;-78
2022/10/18 14:35:25;;;;;;;;;;;;;;;19.36;85.20;100323.41;8325857;28;19999;-78
2022/10/18 14:39:37;;;;;;;;;;;;;;;19.32;84.90;100317.34;8321478;28;19929;-78
2022/10/18 14:43:38;;;;;;;;;;;;;;;19.28;84.39;100316.56;8316426;28;19933;-78
2022/10/18 14:47:39;;;;;;;;;;;;;;;19.27;85.17;100314.84;8307449;28;19933;-79
2022/10/18 14:51:42;;;;;;;;;;;;;;;19.27;86.31;100313.97;8305304;28;19929;-78
2022/10/18 14:55:51;;;;;;;;;;;;;;;19.23;86.53;100312.34;8301902;28;19979;-78
2022/10/18 14:59:56;;;;;;;;;;;;;;;19.18;86.60;100314.19;8295291;28;19944;-78
2022/10/18 15:03:59;;;;;;;;;;;;;;;19.14;86.39;100312.56;8306120;28;19933;-77
2022/10/18 15:08:01;;;;;;;;;;;;;;;19.10;88.10;100305.63;8306704;28;19956;-78
2022/10/18 15:12:04;;;;;;;;;;;;;;;19.07;87.62;100314.47;8320375;28;21253;-79
2022/10/18 15:16:10;;;;;;;;;;;;;;;19.07;87.93;100316.25;8296353;28;20407;-78
2022/10/18 15:20:18;;;;;;;;;;;;;;;19.02;88.88;100316.34;8309363;28;19988;-78
2022/10/18 15:24:27;;;;;;;;;;;;;;;18.95;89.37;100315.63;8292044;28;19990;-78
2022/10/18 15:28:30;;;;;;;;;;;;;;;18.91;89.42;100318.38;8311189;28;19983;-77
2022/10/18 15:32:32;;;;;;;;;;;;;;;18.88;89.33;100311.41;8310823;28;19935;-78
2022/10/18 15:36:34;;;;;;;;;;;;;;;18.85;89.23;100311.50;8306505;28;19928;-78
2022/10/18 15:40:36;;;;;;;;;;;;;;;18.81;89.95;100307.19;8322598;28;19975;-78
2022/10/18 15:44:49;;;;;;;;;;;;;;;18.75;90.98;100309.09;8318068;28;19985;-78
2022/10/18 15:48:51;;;;;;;;;;;;;;;18.67;91.45;100310.16;8327837;28;20384;-78
2022/10/18 15:52:52;;;;;;;;;;;;;;;18.62;92.03;100304.06;8321046;28;19929;-77
2022/10/18 15:56:54;;;;;;;;;;;;;;;18.57;93.04;100307.72;8311436;28;20321;-77
2022/10/18 16:00:57;;;;;;;;;;;;;;;18.55;93.00;100309.53;8301883;28;19929;-78
2022/10/18 16:04:59;;;;;;;;;;;;;;;18.49;92.85;100305.28;8317505;28;19929;-77
2022/10/18 16:09:00;;;;;;;;;;;;;;;18.45;92.21;100305.34;8318417;28;20369;-78
2022/10/18 16:13:01;;;;;;;;;;;;;;;18.38;92.24;100307.25;8307302;28;19956;-78
2022/10/18 16:17:04;;;;;;;;;;;;;;;18.29;92.79;100296.94;8299989;28;19995;-77
2022/10/18 16:21:05;;;;;;;;;;;;;;;18.17;94.09;100295.44;8296018;28;20380;-78
2022/10/18 16:25:07;;;;;;;;;;;;;;;18.02;95.28;100294.00;8302515;28;19929;-78
2022/10/18 16:29:12;;;;;;;;;;;;;;;17.86;96.28;100289.06;8317349;28;19933;-78
2022/10/18 16:33:13;;;;;;;;;;;;;;;17.71;96.92;100292.84;8327963;28;19950;-77
2022/10/18 16:37:21;;;;;;;;;;;;;;;17.56;97.10;100283.47;8376102;28;19967;-77
2022/10/18 16:41:23;;;;;;;;;;;;;;;17.43;96.89;100290.72;8382418;28;20357;-77
2022/10/18 16:45:24;;;;;;;;;;;;;;;17.32;96.66;100282.16;8338439;28;19924;-77
2022/10/18 16:49:26;;;;;;;;;;;;;;;17.16;96.98;100288.56;8355333;28;19929;-77
2022/10/18 16:53:27;;;;;;;;;;;;;;;17.01;97.34;100294.06;8343945;28;19928;-77
2022/10/18 16:57:28;;;;;;;;;;;;;;;16.86;97.34;100297.78;8366242;28;19986;-77
2022/10/18 17:01:30;;;;;;;;;;;;;;;16.70;98.22;100298.94;8360140;28;19998;-77
2022/10/18 17:05:31;;;;;;;;;;;;;;;16.57;98.95;100309.56;8367538;28;20432;-77
2022/10/18 17:09:35;;;;;;;;;;;;;;;16.46;98.99;100310.59;8357649;28;19967;-77
2022/10/18 17:13:36;;;;;;;;;;;;;;;16.36;99.99;100314.22;8360265;28;19993;-77
2022/10/18 17:17:38;;;;;;;;;;;;;;;16.28;100.00;100320.41;8352822;28;19929;-77
2022/10/18 17:21:40;;;;;;;;;;;;;;;16.24;100.00;100317.88;8350511;28;20317;-77
2022/10/18 17:25:45;;;;;;;;;;;;;;;16.17;100.00;100332.81;8377226;28;19939;-76
2022/10/18 17:30:07;;;;;;;;;;;;;;;16.14;100.00;100337.19;8357207;28;19932;-77
2022/10/18 17:34:09;;;;;;;;;;;;;;;16.14;100.00;100338.06;8364620;28;19932;-76
2022/10/18 17:38:10;;;;;;;;;;;;;;;16.12;100.00;100338.97;8370585;28;20320;-77
2022/10/18 17:42:11;;;;;;;;;;;;;;;16.08;100.00;100338.13;8359715;28;19990;-77
2022/10/18 17:46:13;;;;;;;;;;;;;;;16.12;100.00;100344.22;8362183;28;19929;-78
2022/10/18 17:50:15;;;;;;;;;;;;;;;16.11;100.00;100338.09;8358597;28;19985;-78
2022/10/18 17:54:16;;;;;;;;;;;;;;;16.13;100.00;100343.31;8381094;28;19932;-78
2022/10/18 17:58:18;;;;;;;;;;;;;;;16.14;100.00;100347.66;8371867;28;20023;-78
2022/10/18 18:02:19;;;;;;;;;;;;;;;16.11;100.00;100350.34;8351311;28;19943;-78
2022/10/18 18:06:22;;;;;;;;;;;;;;;16.07;100.00;100348.66;8356650;28;19986;-79
2022/10/18 18:10:23;;;;;;;;;;;;;;;16.06;100.00;100352.16;8353610;28;19962;-78
2022/10/18 18:14:25;;;;;;;;;;;;;;;16.07;100.00;100356.50;8363021;28;19928;-79
2022/10/18 18:18:26;;;;;;;;;;;;;;;16.07;100.00;100348.66;8350994;28;19928;-78
2022/10/18 18:22:27;;;;;;;;;;;;;;;16.05;100.00;100356.53;8378626;28;19928;-78
2022/10/18 18:26:32;;;;;;;;;;;;;;;16.05;100.00;100350.41;8337841;28;19929;-78
2022/10/18 18:30:37;;;;;;;;;;;;;;;16.04;100.00;100357.41;8343298;28;19928;-78
2022/10/18 18:34:40;;;;;;;;;;;;;;;16.04;100.00;100357.41;8347555;28;19933;-78
2022/10/18 18:38:42;;;;;;;;;;;;;;;16.03;100.00;100350.44;8356041;28;19929;-78
2022/10/18 18:42:43;;;;;;;;;;;;;;;16.02;100.00;100344.31;8357725;28;19935;-78
2022/10/18 18:46:53;;;;;;;;;;;;;;;16.01;100.00;100353.06;8348250;28;20459;-78
2022/10/18 18:50:55;;;;;;;;;;;;;;;16.00;100.00;100346.09;8352137;28;20007;-78
2022/10/18 18:54:56;;;;;;;;;;;;;;;16.00;100.00;100346.09;8381136;28;19985;-78
2022/10/18 18:58:59;;;;;;;;;;;;;;;15.95;100.00;100347.88;8373050;28;19936;-78
2022/10/18 19:03:00;;;;;;;;;;;;;;;15.95;100.00;100345.25;8347668;28;19940;-78
2022/10/18 19:07:01;;;;;;;;;;;;;;;15.90;100.00;100344.44;8372014;28;19936;-79
2022/10/18 19:11:05;;;;;;;;;;;;;;;15.91;100.00;100338.34;8360143;28;19928;-79
2022/10/18 19:15:10;;;;;;;;;;;;;;;15.87;100.00;100341.00;8351155;28;20051;-79
2022/10/18 19:19:13;;;;;;;;;;;;;;;15.81;100.00;100331.47;8378455;28;19929;-79
2022/10/18 19:23:14;;;;;;;;;;;;;;;15.79;100.00;100332.34;8349193;28;19962;-79
2022/10/18 19:27:16;;;;;;;;;;;;;;;15.74;100.00;100324.53;8357290;28;19964;-79
2022/10/18 19:31:17;;;;;;;;;;;;;;;15.66;100.00;100329.00;8349750;28;19929;-79
2022/10/18 19:35:19;;;;;;;;;;;;;;;15.58;100.00;100329.03;8349744;28;20334;-79
2022/10/18 19:39:25;;;;;;;;;;;;;;;15.52;100.00;100331.72;8370690;28;19942;-79
2022/10/18 19:43:26;;;;;;;;;;;;;;;15.47;100.00;100335.28;8343614;28;19998;-79
2022/10/18 19:47:28;;;;;;;;;;;;;;;15.44;100.00;100336.19;8363472;28;19937;-79
2022/10/18 19:51:32;;;;;;;;;;;;;;;15.46;100.00;100333.53;8355406;28;19933;-79
2022/10/18 19:55:33;;;;;;;;;;;;;;;15.43;100.00;100327.41;8358323;28;19933;-79
2022/10/18 19:59:34;;;;;;;;;;;;;;;15.38;100.00;100329.22;8370492;28;19938;-79
2022/10/18 20:03:36;;;;;;;;;;;;;;;15.33;100.00;100330.16;8376268;28;19936;-79
2022/10/18 20:07:40;;;;;;;;;;;;;;;15.26;100.00;100334.59;8377763;28;20642;-78
2022/10/18 20:11:41;;;;;;;;;;;;;;;15.22;100.00;100329.38;8362556;28;19974;-78
2022/10/18 20:15:50;;;;;;;;;;;;;;;15.15;100.00;100330.31;8357462;28;20680;-79
2022/10/18 20:19:51;;;;;;;;;;;;;;;15.05;100.00;100324.25;8354483;28;20055;-78
2022/10/18 20:23:53;;;;;;;;;;;;;;;14.98;100.00;100317.34;8382417;28;19929;-77
2022/10/18 20:27:54;;;;;;;;;;;;;;;14.91;100.00;100320.91;8367534;28;19928;-77
2022/10/18 20:31:55;;;;;;;;;;;;;;;14.81;100.00;100318.34;8351799;28;19932;-77
2022/10/18 20:36:00;;;;;;;;;;;;;;;14.76;100.00;100327.97;8322696;28;19937;-77
2022/10/18 20:40:02;;;;;;;;;;;;;;;14.66;100.00;100323.66;8308295;28;19991;-77
2022/10/18 20:44:05;;;;;;;;;;;;;;;14.62;100.00;100323.69;8315017;28;19959;-77
2022/10/18 20:48:07;;;;;;;;;;;;;;;14.58;100.00;100322.84;8298134;28;19929;-77